Tuesday, January 16, 2018, 5:25 PM GMT
Back to Local

CYGK, Kingston, Ont.

Location: , , Canada Lat: 44.217
Local Time: 5:25 PM GMT (17:25 GMT) Lon: -76.6
Time Zone: GMT Elev: 305 ft

Show me the last for .
Show Coded

Time T Td Feel RH Dir Speed Gust Alt SLP Vis Weather Sky Remarks
2018-01-16 17:00 14 7 6 72 30° 5 - 30.39 30.41 4 -SN SCT008 BKN021 None
2018-01-16 16:00 12 7 3 78 20° 6 - 30.40 30.43 2 -SN BKN008 OVC018 None
2018-01-16 15:00 10 5 -2 78 30° 8 - 30.41 30.43 1 -SN BKN008 OVC021 None
2018-01-16 14:41 10 5 0 78 20° 7 - 30.41 30.43 1 -SN BKN008 OVC022 None
2018-01-16 14:38 10 5 0 78 20° 7 - 30.41 30.43 2 -SN BKN008 OVC023 None
2018-01-16 14:00 9 3 -5 78 30° 9 - 30.39 30.42 3 -SN BKN007 OVC022 None
2018-01-16 13:00 7 3 -6 84 30° 8 - 30.39 30.41 10 -SN BKN008 OVC022 None
2018-01-16 12:00 7 3 -6 84 20° 8 - 30.39 30.42 8 -SN OVC010 None
2018-01-16 11:00 7 1 -7 77 40° 9 - 30.38 30.41 8 -SN OVC011 None
2018-01-16 04:00 5 0 -10 77 30° 10 - 30.43 30.46 3 -SN OVC011 None
2018-01-16 03:00 5 0 -12 77 30° 13 - 30.44 30.47 3 -SN SCT009 OVC015 None
2018-01-16 02:39 5 0 -14 77 40° 12 17 30.45 30.47 2 -SN SCT007 OVC015 None
2018-01-16 02:00 5 0 -11 77 30° 12 - 30.46 30.49 3 -SN SCT015 OVC025 None
2018-01-16 01:00 5 -2 -14 71 40° 12 17 30.47 30.51 10 -SN FEW032 OVC080 None
2018-01-16 00:14 5 -2 -16 71 40° 13 21 30.50 30.53 15 -SN FEW030 OVC080 None
2018-01-16 00:00 5 -2 -12 71 30° 13 - 30.50 30.53 15 FEW030 OVC090 None
2018-01-15 23:00 7 -2 -11 65 50° 16 - 30.50 30.53 15 FEW030 BKN070 OVC100 None
2018-01-15 22:00 7 -2 -11 65 50° 15 - 30.51 30.55 15 FEW020 BKN100 OVC240 None
2018-01-15 21:00 7 -2 -14 65 40° 15 22 30.52 30.55 15 FEW020 OVC130 None
2018-01-15 20:00 7 -4 -15 60 40° 17 24 30.54 30.58 15 BKN120 OVC240 None
2018-01-15 19:00 5 -4 -13 65 50° 15 - 30.56 30.59 15 SCT140 OVC250 None
2018-01-15 18:00 5 -6 -13 60 50° 15 - 30.60 30.63 15 FEW020 SCT160 BKN200 None

Support USWX by starting your Amazon purchase here.